createdAt,value
2018-05-04T00:00:33.117Z,91.37
2018-05-04T00:01:33.026Z,91.08
2018-05-04T00:02:32.988Z,91.27
2018-05-04T00:03:32.936Z,91.84
2018-05-04T00:04:32.944Z,91.84
2018-05-04T00:05:32.862Z,91.84
2018-05-04T00:06:32.829Z,91.46
2018-05-04T00:07:32.794Z,92.13
2018-05-04T00:08:32.729Z,92.03
2018-05-04T00:09:32.717Z,92.41
2018-05-04T00:10:32.663Z,92.60
2018-05-04T00:11:32.606Z,91.84
2018-05-04T00:12:42.966Z,92.60
2018-05-04T00:13:32.525Z,91.99
2018-05-04T00:14:32.519Z,93.08
2018-05-04T00:15:32.450Z,92.56
2018-05-04T00:16:32.412Z,93.13
2018-05-04T00:17:32.376Z,92.65
2018-05-04T00:18:32.316Z,93.13
2018-05-04T00:19:32.306Z,93.04
2018-05-04T00:20:32.237Z,94.27
2018-05-04T00:21:42.486Z,94.84
2018-05-04T00:22:32.164Z,94.84
2018-05-04T00:23:32.120Z,95.41
2018-05-04T00:24:32.109Z,95.60
2018-05-04T00:25:32.095Z,95.32
2018-05-04T00:26:32.011Z,95.32
2018-05-04T00:27:31.969Z,94.74
2018-05-04T00:28:31.913Z,95.03
2018-05-04T00:29:31.891Z,95.22
2018-05-04T00:30:31.824Z,95.32
2018-05-04T00:31:31.788Z,95.22
2018-05-04T00:32:31.763Z,94.93
2018-05-04T00:33:31.734Z,95.22
2018-05-04T00:34:31.666Z,94.65
2018-05-04T00:35:42.997Z,94.13
2018-05-04T00:36:31.574Z,94.60
2018-05-04T00:37:31.536Z,94.74
2018-05-04T00:38:31.522Z,94.74
2018-05-04T00:39:31.456Z,94.46
2018-05-04T00:40:31.411Z,94.65
2018-05-04T00:41:31.395Z,94.65
2018-05-04T00:42:31.354Z,94.08
2018-05-04T00:43:31.372Z,94.65
2018-05-04T00:44:31.276Z,94.84
2018-05-04T00:45:31.215Z,94.46
2018-05-04T00:46:31.169Z,95.32
2018-05-04T00:47:31.117Z,95.12
2018-05-04T00:48:31.096Z,95.70
2018-05-04T00:49:31.044Z,95.41
2018-05-04T00:50:31.067Z,95.89
2018-05-04T00:51:30.977Z,95.22
2018-05-04T00:52:30.926Z,95.12
2018-05-04T00:53:30.903Z,95.65
2018-05-04T00:54:30.834Z,95.60
2018-05-04T00:55:30.791Z,95.51
2018-05-04T00:56:30.765Z,95.70
2018-05-04T00:57:30.713Z,95.98
2018-05-04T00:58:30.712Z,96.46
2018-05-04T00:59:30.620Z,96.36
2018-05-04T01:00:30.579Z,96.55
2018-05-04T01:01:30.545Z,96.46
2018-05-04T01:02:30.505Z,96.74
2018-05-04T01:03:30.490Z,97.13
2018-05-04T01:04:30.438Z,97.13
2018-05-04T01:05:30.400Z,96.94
2018-05-04T01:06:30.343Z,97.13
2018-05-04T01:07:30.293Z,96.84
2018-05-04T01:08:30.277Z,96.74
2018-05-04T01:09:30.226Z,96.94
2018-05-04T01:10:30.197Z,97.22
2018-05-04T01:11:30.136Z,96.84
2018-05-04T01:12:30.107Z,97.98
2018-05-04T01:13:30.048Z,97.41
2018-05-04T01:14:30.013Z,97.22
2018-05-04T01:15:29.984Z,97.50
2018-05-04T01:16:30.018Z,97.41
2018-05-04T01:17:29.904Z,97.13
2018-05-04T01:18:29.846Z,97.69
2018-05-04T01:19:29.796Z,97.79
2018-05-04T01:20:29.753Z,97.69
2018-05-04T01:21:29.726Z,97.60
2018-05-04T01:22:29.706Z,97.88
2018-05-04T01:23:29.639Z,98.17
2018-05-04T01:24:29.608Z,98.65
2018-05-04T01:25:29.620Z,98.93
2018-05-04T01:26:29.515Z,99.31
2018-05-04T01:27:29.484Z,99.31
2018-05-04T01:28:29.432Z,98.74
2018-05-04T01:29:29.386Z,99.31
2018-05-04T01:30:29.345Z,99.41
2018-05-04T01:31:29.303Z,99.55
2018-05-04T01:32:29.277Z,99.50
2018-05-04T01:33:29.218Z,99.41
2018-05-04T01:34:29.177Z,99.69
2018-05-04T01:35:29.141Z,98.93
2018-05-04T01:36:29.098Z,99.02
2018-05-04T01:37:29.078Z,98.74
2018-05-04T01:38:29.014Z,98.74
2018-05-04T01:39:28.982Z,97.98
2018-05-04T01:40:28.927Z,98.17
2018-05-04T01:41:28.922Z,98.83
2018-05-04T01:42:28.872Z,98.27
2018-05-04T01:43:28.810Z,98.83
2018-05-04T01:44:28.756Z,99.12
2018-05-04T01:45:28.722Z,98.65
2018-05-04T01:46:28.702Z,98.55
2018-05-04T01:47:28.642Z,98.74
2018-05-04T01:48:28.606Z,99.41
2018-05-04T01:49:28.554Z,99.22
2018-05-04T01:50:28.513Z,99.60
2018-05-04T01:51:28.501Z,99.79
2018-05-04T01:52:28.461Z,99.69
2018-05-04T01:53:28.388Z,99.02
2018-05-04T01:54:28.354Z,99.50
2018-05-04T01:55:28.310Z,99.31
2018-05-04T01:56:28.298Z,98.74
2018-05-04T01:57:28.228Z,98.83
2018-05-04T01:58:28.182Z,99.02
2018-05-04T01:59:28.178Z,98.17
2018-05-04T02:00:28.147Z,98.36
2018-05-04T02:01:28.082Z,97.69
2018-05-04T02:02:28.014Z,98.36
2018-05-04T02:03:27.968Z,98.17
2018-05-04T02:04:27.930Z,98.17
2018-05-04T02:05:27.892Z,97.98
2018-05-04T02:06:37.559Z,99.22
2018-05-04T02:07:27.817Z,98.46
2018-05-04T02:08:27.771Z,99.12
2018-05-04T02:09:27.717Z,99.69
2018-05-04T02:10:27.716Z,99.41
2018-05-04T02:11:27.714Z,99.22
2018-05-04T02:12:27.603Z,99.41
2018-05-04T02:13:27.563Z,99.60
2018-05-04T02:14:27.509Z,99.99
2018-05-04T02:15:27.470Z,99.99
2018-05-04T02:16:27.459Z,99.41
2018-05-04T02:17:27.399Z,99.41
2018-05-04T02:18:27.356Z,98.83
2018-05-04T02:19:27.324Z,98.46
2018-05-04T02:20:27.260Z,98.46
2018-05-04T02:21:27.240Z,99.02
2018-05-04T02:22:27.176Z,98.08
2018-05-04T02:23:27.139Z,98.27
2018-05-04T02:24:27.097Z,98.27
2018-05-04T02:25:27.084Z,98.17
2018-05-04T02:26:27.024Z,99.02
2018-05-04T02:27:26.976Z,99.12
2018-05-04T02:28:26.948Z,98.17
2018-05-04T02:29:27.001Z,99.12
2018-05-04T02:30:26.910Z,98.74
2018-05-04T02:31:26.813Z,99.31
2018-05-04T02:32:26.779Z,99.22
2018-05-04T02:33:26.730Z,98.88
2018-05-04T02:34:26.781Z,99.02
2018-05-04T02:35:26.664Z,99.31
2018-05-04T02:36:26.607Z,99.55
2018-05-04T02:37:26.563Z,98.88
2018-05-04T02:38:26.524Z,99.07
2018-05-04T02:39:26.489Z,98.60
2018-05-04T02:40:26.461Z,99.12
2018-05-04T02:41:26.386Z,98.55
2018-05-04T02:42:26.412Z,98.55
2018-05-04T02:43:26.316Z,98.46
2018-05-04T02:44:26.274Z,98.46
2018-05-04T02:45:26.446Z,98.36
2018-05-04T02:46:26.273Z,98.17
2018-05-04T02:47:26.151Z,98.79
2018-05-04T02:48:26.101Z,98.79
2018-05-04T02:49:26.064Z,98.69
2018-05-04T02:50:26.046Z,98.88
2018-05-04T02:51:25.975Z,99.26
2018-05-04T02:52:25.930Z,99.36
2018-05-04T02:53:25.909Z,98.79
2018-05-04T02:54:25.887Z,98.97
2018-05-04T02:55:25.869Z,99.07
2018-05-04T02:56:25.853Z,99.36
2018-05-04T02:57:36.067Z,99.74
2018-05-04T02:58:25.684Z,99.99
2018-05-04T02:59:25.660Z,99.93
2018-05-04T03:00:25.604Z,99.84
2018-05-04T03:01:25.555Z,99.64
2018-05-04T03:02:25.515Z,99.99
2018-05-04T03:03:25.471Z,99.93
2018-05-04T03:04:25.451Z,99.93
2018-05-04T03:05:25.389Z,99.99
2018-05-04T03:06:25.349Z,99.99
2018-05-04T03:07:25.419Z,99.99
2018-05-04T03:08:25.274Z,99.99
2018-05-04T03:09:25.248Z,99.99
2018-05-04T03:10:25.188Z,99.99
2018-05-04T03:11:25.134Z,99.99
2018-05-04T03:12:25.095Z,99.99
2018-05-04T03:13:25.052Z,99.99
2018-05-04T03:14:25.042Z,99.99
2018-05-04T03:15:25.008Z,99.99
2018-05-04T03:16:24.923Z,99.99
2018-05-04T03:17:24.884Z,99.99
2018-05-04T03:18:24.934Z,99.99
2018-05-04T03:19:24.844Z,99.99
2018-05-04T03:20:36.078Z,99.99
2018-05-04T03:21:24.715Z,99.99
2018-05-04T03:22:24.670Z,99.99
2018-05-04T03:23:24.634Z,99.99
2018-05-04T03:24:24.624Z,99.99
2018-05-04T03:25:24.559Z,99.30
2018-05-04T03:26:24.521Z,98.31
2018-05-04T03:27:24.469Z,98.22
2018-05-04T03:28:24.426Z,98.69
2018-05-04T03:29:24.401Z,97.45
2018-05-04T03:30:24.352Z,98.22
2018-05-04T03:31:24.305Z,97.64
2018-05-04T03:32:24.265Z,99.26
2018-05-04T03:33:24.213Z,99.78
2018-05-04T03:34:24.197Z,99.30
2018-05-04T03:35:24.135Z,98.88
2018-05-04T03:36:24.088Z,98.41
2018-05-04T03:37:24.053Z,97.36
2018-05-04T03:38:24.068Z,98.12
2018-05-04T03:39:23.967Z,96.60
2018-05-04T03:40:23.922Z,97.55
2018-05-04T03:41:23.885Z,97.93
2018-05-04T03:42:23.831Z,98.88
2018-05-04T03:43:23.822Z,97.64
2018-05-04T03:44:23.756Z,98.64
2018-05-04T03:45:23.826Z,97.88
2018-05-04T03:46:23.684Z,98.07
2018-05-04T03:47:23.630Z,99.30
2018-05-04T03:48:23.614Z,99.30
2018-05-04T03:49:34.651Z,99.88
2018-05-04T03:50:23.507Z,99.11
2018-05-04T03:51:23.461Z,99.59
2018-05-04T03:52:23.414Z,99.99
2018-05-04T03:53:23.404Z,99.99
2018-05-04T03:54:23.337Z,99.99
2018-05-04T03:55:23.300Z,99.99
2018-05-04T03:56:23.257Z,99.99
2018-05-04T03:57:23.289Z,99.99
2018-05-04T03:58:23.194Z,99.99
2018-05-04T03:59:23.120Z,99.99
2018-05-04T04:00:23.095Z,99.99
2018-05-04T04:01:23.044Z,99.99
2018-05-04T04:02:23.047Z,99.99
2018-05-04T04:03:22.976Z,99.99
2018-05-04T04:04:22.910Z,99.99
2018-05-04T04:05:22.876Z,99.99
2018-05-04T04:06:22.839Z,99.99
2018-05-04T04:07:33.141Z,99.99
2018-05-04T04:08:22.834Z,99.99
2018-05-04T04:09:22.734Z,99.99
2018-05-04T04:10:22.662Z,99.99
2018-05-04T04:11:22.624Z,99.99
2018-05-04T04:12:22.582Z,99.99
2018-05-04T04:13:22.564Z,99.99
2018-05-04T04:14:22.504Z,99.99
2018-05-04T04:15:22.457Z,99.99
2018-05-04T04:16:22.412Z,99.99
2018-05-04T04:17:22.428Z,99.99
2018-05-04T04:18:22.416Z,99.99
2018-05-04T04:19:22.298Z,99.99
2018-05-04T04:20:22.258Z,99.99
2018-05-04T04:21:22.307Z,99.99
2018-05-04T04:22:22.159Z,99.99
2018-05-04T04:23:22.135Z,99.99
2018-05-04T04:24:22.093Z,99.99
2018-05-04T04:25:22.036Z,99.99
2018-05-04T04:26:21.991Z,99.99
2018-05-04T04:27:21.954Z,99.99
2018-05-04T04:28:21.921Z,99.99
2018-05-04T04:29:21.872Z,99.99
2018-05-04T04:30:21.828Z,99.99
2018-05-04T04:31:21.783Z,99.99
2018-05-04T04:32:21.732Z,99.99
2018-05-04T04:33:21.736Z,99.99
2018-05-04T04:34:21.658Z,99.99
2018-05-04T04:35:21.604Z,99.99
2018-05-04T04:36:21.589Z,99.99
2018-05-04T04:37:21.675Z,99.99
2018-05-04T04:38:21.530Z,99.99
2018-05-04T04:39:21.454Z,99.99
2018-05-04T04:40:21.473Z,99.99
2018-05-04T04:41:21.399Z,99.99
2018-05-04T04:42:21.346Z,99.99
2018-05-04T04:43:21.265Z,99.99
2018-05-04T04:44:21.238Z,99.99
2018-05-04T04:45:21.275Z,99.99
2018-05-04T04:46:21.150Z,99.99
2018-05-04T04:47:21.118Z,99.99
2018-05-04T04:48:21.070Z,99.99
2018-05-04T04:49:21.020Z,99.99
2018-05-04T04:50:20.992Z,99.99
2018-05-04T04:51:20.937Z,99.99
2018-05-04T04:52:21.002Z,99.99
2018-05-04T04:53:20.862Z,99.99
2018-05-04T04:54:20.827Z,99.99
2018-05-04T04:55:20.764Z,99.99
2018-05-04T04:56:20.739Z,99.99
2018-05-04T04:57:20.716Z,99.99
2018-05-04T04:58:20.680Z,99.99
2018-05-04T04:59:20.611Z,99.99
2018-05-04T05:00:20.561Z,99.99
2018-05-04T05:01:20.518Z,99.99
2018-05-04T05:02:20.541Z,98.55
2018-05-04T05:03:20.510Z,94.13
2018-05-04T05:04:20.408Z,88.69
2018-05-04T05:05:20.347Z,85.11
2018-05-04T05:06:20.316Z,81.33
2018-05-04T05:07:20.429Z,77.45
2018-05-04T05:08:20.253Z,76.25
2018-05-04T05:09:20.209Z,73.77
2018-05-04T05:10:20.147Z,72.43
2018-05-04T05:11:20.257Z,71.32
2018-05-04T05:12:20.097Z,69.92
2018-05-04T05:13:20.020Z,68.39
2018-05-04T05:14:19.978Z,67.53
2018-05-04T05:15:19.949Z,68.04
2018-05-04T05:16:19.978Z,67.18
2018-05-04T05:17:19.976Z,66.70
2018-05-04T05:18:19.837Z,66.51
2018-05-04T05:19:19.811Z,66.80
2018-05-04T05:20:19.755Z,65.94
2018-05-04T05:21:19.743Z,65.39
2018-05-04T05:22:19.706Z,64.53
2018-05-04T05:23:19.637Z,64.63
2018-05-04T05:24:19.590Z,64.47
2018-05-04T05:25:19.653Z,63.99
2018-05-04T05:26:19.544Z,62.68
2018-05-04T05:27:19.470Z,62.49
2018-05-04T05:28:19.449Z,62.84
2018-05-04T05:29:19.398Z,63.51
2018-05-04T05:30:19.356Z,63.26
2018-05-04T05:31:19.350Z,62.30
2018-05-04T05:32:19.275Z,62.68
2018-05-04T05:33:19.261Z,61.94
2018-05-04T05:34:19.222Z,60.89
2018-05-04T05:35:19.251Z,60.72
2018-05-04T05:36:19.156Z,60.15
2018-05-04T05:37:19.096Z,60.44
2018-05-04T05:38:19.202Z,60.70
2018-05-04T05:39:19.072Z,59.86
2018-05-04T05:40:19.015Z,59.32
2018-05-04T05:41:18.984Z,58.94
2018-05-04T05:42:18.991Z,58.36
2018-05-04T05:43:18.877Z,57.97
2018-05-04T05:44:18.833Z,57.59
2018-05-04T05:45:18.802Z,57.14
2018-05-04T05:46:18.816Z,57.11
2018-05-04T05:47:18.719Z,57.21
2018-05-04T05:48:18.696Z,59.80
2018-05-04T05:49:18.652Z,60.11
2018-05-04T05:50:18.640Z,57.36
2018-05-04T05:51:18.576Z,56.98
2018-05-04T05:52:18.554Z,56.49
2018-05-04T05:53:18.511Z,55.76
2018-05-04T05:54:18.476Z,55.08
2018-05-04T05:55:18.467Z,54.46
2018-05-04T05:56:18.395Z,51.31
2018-05-04T05:57:18.365Z,51.29
2018-05-04T05:58:18.330Z,50.93
2018-05-04T05:59:18.288Z,50.23
2018-05-04T06:00:18.285Z,51.96
2018-05-04T06:01:18.223Z,50.99
2018-05-04T06:02:18.193Z,50.15
2018-05-04T06:03:18.172Z,50.42
2018-05-04T06:04:18.112Z,51.38
2018-05-04T06:05:27.705Z,51.31
2018-05-04T06:06:18.047Z,50.93
2018-05-04T06:07:18.013Z,51.34
2018-05-04T06:08:17.989Z,50.63
2018-05-04T06:09:17.962Z,50.85
2018-05-04T06:10:17.953Z,49.99
2018-05-04T06:11:17.877Z,50.88
2018-05-04T06:12:17.847Z,49.46
2018-05-04T06:13:17.812Z,49.46
2018-05-04T06:14:17.782Z,50.32
2018-05-04T06:15:17.767Z,50.40
2018-05-04T06:16:17.705Z,50.49
2018-05-04T06:17:17.661Z,50.42
2018-05-04T06:18:17.642Z,49.75
2018-05-04T06:19:17.604Z,50.06
2018-05-04T06:20:17.596Z,49.22
2018-05-04T06:21:17.536Z,47.02
2018-05-04T06:22:17.506Z,46.83
2018-05-04T06:23:17.472Z,46.13
2018-05-04T06:24:17.457Z,45.96
2018-05-04T06:25:17.402Z,45.38
2018-05-04T06:26:17.357Z,44.12
2018-05-04T06:27:17.325Z,44.80
2018-05-04T06:28:17.296Z,45.67
2018-05-04T06:29:17.296Z,45.21
2018-05-04T06:30:17.236Z,43.16
2018-05-04T06:31:17.198Z,43.88
2018-05-04T06:32:17.164Z,43.03
2018-05-04T06:33:17.133Z,41.19
2018-05-04T06:34:17.117Z,40.63
2018-05-04T06:35:17.071Z,39.28
2018-05-04T06:36:17.038Z,38.31
2018-05-04T06:37:17.014Z,38.89
2018-05-04T06:38:16.965Z,38.64
2018-05-04T06:39:16.957Z,37.24
2018-05-04T06:40:16.896Z,37.36
2018-05-04T06:41:16.921Z,37.85
2018-05-04T06:42:16.875Z,38.37
2018-05-04T06:43:16.825Z,37.32
2018-05-04T06:44:16.811Z,36.27
2018-05-04T06:45:27.232Z,36.16
2018-05-04T06:46:16.722Z,35.83
2018-05-04T06:47:16.674Z,37.40
2018-05-04T06:48:16.665Z,36.76
2018-05-04T06:49:17.223Z,36.80
2018-05-04T06:50:16.571Z,36.54
2018-05-04T06:51:16.552Z,35.80
2018-05-04T06:52:16.520Z,34.83
2018-05-04T06:53:27.262Z,33.84
2018-05-04T06:54:16.446Z,35.27
2018-05-04T06:55:16.410Z,35.15
2018-05-04T06:56:16.384Z,35.44
2018-05-04T06:57:16.352Z,35.62
2018-05-04T06:58:16.325Z,35.62
2018-05-04T06:59:16.358Z,35.72
2018-05-04T07:00:16.249Z,36.22
2018-05-04T07:01:16.223Z,36.51
2018-05-04T07:02:16.194Z,35.75
2018-05-04T07:03:16.176Z,35.66
2018-05-04T07:04:16.404Z,35.19
2018-05-04T07:05:16.092Z,35.19
2018-05-04T07:06:16.051Z,33.92
2018-05-04T07:07:16.016Z,35.41
2018-05-04T07:08:16.016Z,35.40
2018-05-04T07:09:15.955Z,35.21
2018-05-04T07:10:15.932Z,35.81
2018-05-04T07:11:15.894Z,37.19
2018-05-04T07:12:15.866Z,37.10
2018-05-04T07:13:15.864Z,39.06
2018-05-04T07:14:15.799Z,36.76
2018-05-04T07:15:15.768Z,37.48
2018-05-04T07:16:25.780Z,35.54
2018-05-04T07:17:15.717Z,36.88
2018-05-04T07:18:15.698Z,36.86
2018-05-04T07:19:15.637Z,36.20
2018-05-04T07:20:15.618Z,35.54
2018-05-04T07:21:15.579Z,35.91
2018-05-04T07:22:15.544Z,36.49
2018-05-04T07:23:15.551Z,37.05
2018-05-04T07:24:15.474Z,37.05
2018-05-04T07:25:15.450Z,37.71
2018-05-04T07:26:15.418Z,36.57
2018-05-04T07:27:15.376Z,36.49
2018-05-04T07:28:15.383Z,36.08
2018-05-04T07:29:15.334Z,37.21
2018-05-04T07:30:15.296Z,38.20
2018-05-04T07:31:15.301Z,38.35
2018-05-04T07:32:15.247Z,37.24
2018-05-04T07:33:15.238Z,37.54
2018-05-04T07:34:15.192Z,36.30
2018-05-04T07:35:15.171Z,37.75
2018-05-04T07:36:15.104Z,37.60
2018-05-04T07:37:15.095Z,38.08
2018-05-04T07:38:15.043Z,39.53
2018-05-04T07:39:15.005Z,38.93
2018-05-04T07:40:14.992Z,39.24
2018-05-04T07:41:14.950Z,38.85
2018-05-04T07:42:14.961Z,38.20
2018-05-04T07:43:14.936Z,38.33
2018-05-04T07:44:14.874Z,37.42
2018-05-04T07:45:14.832Z,39.76
2018-05-04T07:46:14.811Z,40.17
2018-05-04T07:47:14.841Z,41.17
2018-05-04T07:48:14.733Z,38.76
2018-05-04T07:49:14.724Z,40.01
2018-05-04T07:50:14.679Z,38.85
2018-05-04T07:51:14.634Z,38.28
2018-05-04T07:52:14.636Z,37.23
2018-05-04T07:53:14.580Z,38.08
2018-05-04T07:54:14.555Z,38.37
2018-05-04T07:55:14.574Z,37.96
2018-05-04T07:56:14.477Z,37.60
2018-05-04T07:57:14.468Z,38.58
2018-05-04T07:58:14.432Z,38.95
2018-05-04T07:59:14.657Z,38.12
2018-05-04T08:00:14.370Z,38.70
2018-05-04T08:01:14.341Z,38.91
2018-05-04T08:02:14.331Z,38.21
2018-05-04T08:03:14.269Z,39.01
2018-05-04T08:04:24.721Z,39.59
2018-05-04T08:05:14.213Z,39.80
2018-05-04T08:06:14.173Z,40.19
2018-05-04T08:07:14.268Z,40.13
2018-05-04T08:08:14.121Z,38.54
2018-05-04T08:09:14.074Z,40.26
2018-05-04T08:10:14.061Z,40.55
2018-05-04T08:11:14.036Z,38.70
2018-05-04T08:12:14.020Z,39.76
2018-05-04T08:13:13.987Z,39.01
2018-05-04T08:14:13.932Z,38.33
2018-05-04T08:15:13.907Z,38.81
2018-05-04T08:16:13.895Z,40.17
2018-05-04T08:17:13.836Z,39.78
2018-05-04T08:18:13.825Z,40.20
2018-05-04T08:19:13.789Z,39.22
2018-05-04T08:20:13.780Z,40.26
2018-05-04T08:21:13.748Z,39.29
2018-05-04T08:22:13.696Z,38.33
2018-05-04T08:23:13.653Z,38.06
2018-05-04T08:24:13.622Z,37.21
2018-05-04T08:25:13.602Z,36.82
2018-05-04T08:26:13.593Z,37.46
2018-05-04T08:27:13.549Z,38.53
2018-05-04T08:28:13.514Z,38.60
2018-05-04T08:29:13.473Z,39.86
2018-05-04T08:30:13.447Z,40.01
2018-05-04T08:31:13.440Z,38.93
2018-05-04T08:32:13.402Z,39.53
2018-05-04T08:33:13.350Z,40.39
2018-05-04T08:34:13.324Z,41.28
2018-05-04T08:35:13.342Z,41.03
2018-05-04T08:36:13.293Z,39.32
2018-05-04T08:37:13.237Z,37.75
2018-05-04T08:38:13.201Z,37.30
2018-05-04T08:39:13.164Z,36.40
2018-05-04T08:40:13.138Z,36.67
2018-05-04T08:41:13.131Z,36.93
2018-05-04T08:42:13.081Z,38.28
2018-05-04T08:43:13.124Z,38.41
2018-05-04T08:44:13.035Z,38.23
2018-05-04T08:45:12.991Z,37.93
2018-05-04T08:46:12.985Z,37.37
2018-05-04T08:47:13.551Z,36.90
2018-05-04T08:48:12.924Z,37.17
2018-05-04T08:49:12.874Z,36.75
2018-05-04T08:50:12.846Z,38.37
2018-05-04T08:51:12.925Z,40.22
2018-05-04T08:52:12.777Z,38.18
2018-05-04T08:53:12.750Z,38.01
2018-05-04T08:54:12.746Z,38.20
2018-05-04T08:55:12.722Z,37.63
2018-05-04T08:56:12.677Z,38.20
2018-05-04T08:57:12.664Z,37.39
2018-05-04T08:58:12.613Z,37.89
2018-05-04T08:59:12.589Z,37.41
2018-05-04T09:00:12.562Z,38.33
2018-05-04T09:01:12.569Z,41.14
2018-05-04T09:02:12.494Z,40.88
2018-05-04T09:03:12.464Z,39.24
2018-05-04T09:04:12.434Z,39.72
2018-05-04T09:05:12.444Z,38.95
2018-05-04T09:06:12.397Z,38.20
2018-05-04T09:07:12.328Z,38.68
2018-05-04T09:08:12.316Z,38.79
2018-05-04T09:09:12.271Z,39.06
2018-05-04T09:10:12.241Z,39.18
2018-05-04T09:11:12.205Z,39.32
2018-05-04T09:12:12.212Z,38.76
2018-05-04T09:13:12.156Z,38.66
2018-05-04T09:14:12.130Z,38.58
2018-05-04T09:15:22.373Z,38.28
2018-05-04T09:16:12.063Z,36.15
2018-05-04T09:17:12.034Z,35.05
2018-05-04T09:18:12.025Z,35.21
2018-05-04T09:19:12.007Z,37.50
2018-05-04T09:20:11.955Z,38.29
2018-05-04T09:21:11.923Z,38.29
2018-05-04T09:22:11.890Z,39.16
2018-05-04T09:23:11.857Z,37.91
2018-05-04T09:24:11.858Z,37.10
2018-05-04T09:25:11.866Z,38.16
2018-05-04T09:26:11.775Z,38.45
2018-05-04T09:27:11.742Z,38.66
2018-05-04T09:28:11.712Z,38.45
2018-05-04T09:29:11.747Z,38.62
2018-05-04T09:30:11.708Z,38.16
2018-05-04T09:31:11.641Z,38.85
2018-05-04T09:32:11.613Z,37.98
2018-05-04T09:33:11.593Z,37.73
2018-05-04T09:34:11.591Z,38.12
2018-05-04T09:35:11.512Z,38.10
2018-05-04T09:36:11.480Z,38.28
2018-05-04T09:37:22.929Z,39.84
2018-05-04T09:38:11.423Z,38.21
2018-05-04T09:39:11.382Z,38.81
2018-05-04T09:40:11.397Z,39.29
2018-05-04T09:41:11.362Z,39.72
2018-05-04T09:42:11.303Z,36.61
2018-05-04T09:43:11.291Z,37.95
2018-05-04T09:44:11.248Z,38.70
2018-05-04T09:45:11.218Z,38.49
2018-05-04T09:46:11.248Z,39.76
2018-05-04T09:47:11.160Z,39.97
2018-05-04T09:48:11.142Z,38.81
2018-05-04T09:49:11.156Z,38.23
2018-05-04T09:50:11.093Z,38.01
2018-05-04T09:51:11.085Z,38.18
2018-05-04T09:52:11.049Z,39.45
2018-05-04T09:53:11.007Z,39.28
2018-05-04T09:54:11.039Z,40.05
2018-05-04T09:55:10.949Z,37.98
2018-05-04T09:56:10.963Z,39.62
2018-05-04T09:57:10.918Z,40.42
2018-05-04T09:58:10.854Z,41.23
2018-05-04T09:59:10.819Z,38.54
2018-05-04T10:00:10.789Z,38.06
2018-05-04T10:01:20.948Z,37.58
2018-05-04T10:02:10.754Z,36.61
2018-05-04T10:03:10.730Z,35.52
2018-05-04T10:04:10.689Z,36.43
2018-05-04T10:05:10.646Z,38.26
2018-05-04T10:06:10.655Z,38.64
2018-05-04T10:07:10.621Z,37.29
2018-05-04T10:08:10.608Z,38.18
2018-05-04T10:09:10.594Z,38.29
2018-05-04T10:10:10.503Z,38.70
2018-05-04T10:11:10.491Z,38.21
2018-05-04T10:12:10.484Z,37.08
2018-05-04T10:13:10.456Z,36.40
2018-05-04T10:14:10.412Z,36.40
2018-05-04T10:15:10.374Z,36.01
2018-05-04T10:16:10.595Z,35.61
2018-05-04T10:17:10.307Z,37.37
2018-05-04T10:18:10.283Z,37.10
2018-05-04T10:19:10.285Z,35.72
2018-05-04T10:20:10.227Z,36.79
2018-05-04T10:21:10.202Z,37.00
2018-05-04T10:22:10.164Z,36.61
2018-05-04T10:23:10.144Z,36.42
2018-05-04T10:24:10.119Z,36.11
2018-05-04T10:25:10.114Z,37.37
2018-05-04T10:26:10.063Z,36.57
2018-05-04T10:27:10.044Z,36.09
2018-05-04T10:28:10.007Z,36.88
2018-05-04T10:29:09.981Z,35.22
2018-05-04T10:30:09.980Z,38.60
2018-05-04T10:31:09.926Z,38.33
2018-05-04T10:32:09.904Z,37.27
2018-05-04T10:33:09.872Z,36.50
2018-05-04T10:34:09.855Z,37.37
2018-05-04T10:35:09.838Z,36.65
2018-05-04T10:36:09.824Z,36.85
2018-05-04T10:37:09.766Z,37.71
2018-05-04T10:38:09.783Z,37.91
2018-05-04T10:39:09.715Z,37.91
2018-05-04T10:40:09.692Z,37.35
2018-05-04T10:41:09.664Z,38.14
2018-05-04T10:42:09.664Z,36.40
2018-05-04T10:43:09.597Z,36.48
2018-05-04T10:44:09.577Z,36.19
2018-05-04T10:45:09.612Z,36.87
2018-05-04T10:46:09.524Z,36.09
2018-05-04T10:47:09.510Z,35.67
2018-05-04T10:48:09.467Z,36.83
2018-05-04T10:49:09.441Z,38.10
2018-05-04T10:50:09.412Z,37.13
2018-05-04T10:51:09.379Z,37.25
2018-05-04T10:52:09.362Z,35.98
2018-05-04T10:53:09.361Z,36.00
2018-05-04T10:54:09.289Z,36.48
2018-05-04T10:55:09.269Z,35.96
2018-05-04T10:56:09.243Z,37.41
2018-05-04T10:57:09.226Z,37.48
2018-05-04T10:58:09.222Z,38.14
2018-05-04T10:59:09.162Z,39.79
2018-05-04T11:00:09.124Z,39.31
2018-05-04T11:01:09.091Z,39.04
2018-05-04T11:02:09.063Z,39.24
2018-05-04T11:03:09.074Z,37.04
2018-05-04T11:04:09.009Z,36.52
2018-05-04T11:05:08.988Z,37.46
2018-05-04T11:06:08.963Z,38.72
2018-05-04T11:07:08.925Z,38.85
2018-05-04T11:08:08.932Z,38.85
2018-05-04T11:09:08.874Z,38.01
2018-05-04T11:10:08.851Z,38.41
2018-05-04T11:11:08.815Z,37.17
2018-05-04T11:12:08.791Z,37.38
2018-05-04T11:13:18.519Z,36.50
2018-05-04T11:14:08.731Z,36.61
2018-05-04T11:15:08.707Z,36.11
2018-05-04T11:16:08.693Z,36.75
2018-05-04T11:17:08.656Z,37.60
2018-05-04T11:18:08.650Z,38.28
2018-05-04T11:19:08.590Z,38.58
2018-05-04T11:20:08.563Z,38.95
2018-05-04T11:21:08.540Z,38.68
2018-05-04T11:22:08.512Z,38.39
2018-05-04T11:23:08.517Z,37.13
2018-05-04T11:24:08.454Z,37.62
2018-05-04T11:25:08.430Z,38.12
2018-05-04T11:26:08.400Z,38.31
2018-05-04T11:27:08.379Z,37.35
2018-05-04T11:28:08.376Z,38.51
2018-05-04T11:29:08.315Z,38.89
2018-05-04T11:30:08.304Z,38.31
2018-05-04T11:31:08.254Z,36.38
2018-05-04T11:32:08.223Z,36.73
2018-05-04T11:33:08.235Z,38.18
2018-05-04T11:34:08.179Z,39.14
2018-05-04T11:35:08.163Z,38.79
2018-05-04T11:36:18.518Z,39.20
2018-05-04T11:37:08.094Z,37.63
2018-05-04T11:38:08.096Z,37.12
2018-05-04T11:39:08.053Z,38.85
2018-05-04T11:40:08.012Z,39.84
2018-05-04T11:41:07.980Z,37.98
2018-05-04T11:42:07.962Z,38.46
2018-05-04T11:43:07.961Z,39.74
2018-05-04T11:44:07.909Z,38.78
2018-05-04T11:45:07.886Z,39.09
2018-05-04T11:46:07.884Z,38.68
2018-05-04T11:47:07.819Z,38.60
2018-05-04T11:48:07.819Z,38.81
2018-05-04T11:49:07.761Z,39.01
2018-05-04T11:50:07.737Z,38.45
2018-05-04T11:51:18.056Z,38.16
2018-05-04T11:52:07.679Z,37.38
2018-05-04T11:53:07.685Z,37.35
2018-05-04T11:54:07.629Z,37.71
2018-05-04T11:55:07.629Z,37.91
2018-05-04T11:56:07.580Z,38.89
2018-05-04T11:57:07.552Z,38.02
2018-05-04T11:58:07.562Z,38.79
2018-05-04T11:59:07.487Z,38.79
2018-05-04T12:00:07.466Z,38.31
2018-05-04T12:01:07.450Z,38.62
2018-05-04T12:02:07.413Z,37.27
2018-05-04T12:03:07.410Z,37.35
2018-05-04T12:04:07.364Z,37.50
2018-05-04T12:05:07.341Z,38.66
2018-05-04T12:06:07.301Z,39.72
2018-05-04T12:07:07.272Z,38.85
2018-05-04T12:08:07.281Z,38.87
2018-05-04T12:09:07.228Z,38.49
2018-05-04T12:10:07.195Z,37.31
2018-05-04T12:11:07.168Z,37.96
2018-05-04T12:12:07.138Z,38.26
2018-05-04T12:13:07.148Z,38.93
2018-05-04T12:14:07.097Z,38.76
2018-05-04T12:15:07.067Z,38.76
2018-05-04T12:16:07.039Z,38.87
2018-05-04T12:17:07.009Z,38.58
2018-05-04T12:18:06.974Z,38.51
2018-05-04T12:19:07.043Z,37.62
2018-05-04T12:20:06.914Z,38.12
2018-05-04T12:21:06.892Z,37.23
2018-05-04T12:22:06.872Z,37.04
2018-05-04T12:23:06.848Z,38.20
2018-05-04T12:24:06.811Z,37.23
2018-05-04T12:25:06.813Z,37.70
2018-05-04T12:26:06.765Z,39.34
2018-05-04T12:27:06.735Z,38.56
2018-05-04T12:28:06.708Z,38.76
2018-05-04T12:29:06.711Z,38.46
2018-05-04T12:30:06.653Z,38.95
2018-05-04T12:31:06.624Z,39.24
2018-05-04T12:32:06.639Z,39.72
2018-05-04T12:33:06.568Z,39.72
2018-05-04T12:34:06.567Z,39.31
2018-05-04T12:35:06.512Z,38.74
2018-05-04T12:36:06.481Z,38.64
2018-05-04T12:37:06.485Z,38.83
2018-05-04T12:38:06.441Z,39.68
2018-05-04T12:39:06.436Z,40.45
2018-05-04T12:40:06.378Z,41.13
2018-05-04T12:41:06.363Z,39.70
2018-05-04T12:42:06.324Z,38.16
2018-05-04T12:43:06.311Z,38.45
2018-05-04T12:44:06.306Z,38.64
2018-05-04T12:45:06.242Z,38.74
2018-05-04T12:46:06.227Z,38.14
2018-05-04T12:47:16.594Z,38.53
2018-05-04T12:48:06.160Z,38.62
2018-05-04T12:49:06.157Z,39.29
2018-05-04T12:50:06.130Z,39.20
2018-05-04T12:51:06.075Z,38.72
2018-05-04T12:52:06.045Z,39.78